createdAt,value
2022-11-05T05:00:29.416Z,9.20
2022-11-05T05:02:57.448Z,9.20
2022-11-05T05:05:25.507Z,9.10
2022-11-05T05:07:53.547Z,9.10
2022-11-05T05:10:21.535Z,9.10
2022-11-05T05:12:49.508Z,9.10
2022-11-05T05:15:17.758Z,9.10
2022-11-05T05:17:51.971Z,9.10
2022-11-05T05:20:37.771Z,9.10
2022-11-05T05:23:05.934Z,9.00
2022-11-05T05:25:33.893Z,9.10
2022-11-05T05:28:01.895Z,9.10
2022-11-05T05:30:29.924Z,9.10
2022-11-05T05:33:03.814Z,9.10
2022-11-05T05:35:31.837Z,9.10
2022-11-05T05:37:59.793Z,9.10
2022-11-05T05:40:27.976Z,9.10
2022-11-05T05:42:56.607Z,9.10
2022-11-05T05:45:24.658Z,9.10
2022-11-05T05:47:52.748Z,9.10
2022-11-05T05:50:22.063Z,9.10
2022-11-05T05:52:50.035Z,9.00
2022-11-05T05:55:18.100Z,9.00
2022-11-05T05:57:46.092Z,8.90
2022-11-05T06:00:15.708Z,8.80
2022-11-05T06:02:43.791Z,8.90
2022-11-05T06:05:11.909Z,8.90
2022-11-05T06:07:41.224Z,8.90
2022-11-05T06:10:10.263Z,8.80
2022-11-05T06:12:38.292Z,8.80
2022-11-05T06:15:07.355Z,8.80
2022-11-05T06:17:36.254Z,8.80
2022-11-05T06:20:04.810Z,8.80
2022-11-05T06:22:32.731Z,8.80
2022-11-05T06:25:02.187Z,8.70
2022-11-05T06:27:30.722Z,8.80
2022-11-05T06:29:58.746Z,8.70
2022-11-05T06:32:26.764Z,8.70
2022-11-05T06:34:54.747Z,8.70
2022-11-05T06:37:22.696Z,8.70
2022-11-05T06:39:50.639Z,8.70
2022-11-05T06:42:19.995Z,8.70
2022-11-05T06:44:48.218Z,8.60
2022-11-05T06:47:16.335Z,8.70
2022-11-05T06:49:44.383Z,8.70
2022-11-05T06:52:12.914Z,8.70
2022-11-05T06:54:42.274Z,8.70
2022-11-05T06:57:11.805Z,8.70
2022-11-05T06:59:41.200Z,8.80
2022-11-05T07:02:13.456Z,8.80
2022-11-05T07:04:41.522Z,8.80
2022-11-05T07:07:09.495Z,8.80
2022-11-05T07:09:40.515Z,8.80
2022-11-05T07:12:09.110Z,8.80
2022-11-05T07:14:37.125Z,8.80
2022-11-05T07:17:06.428Z,8.80
2022-11-05T07:19:34.792Z,8.80
2022-11-05T07:22:02.815Z,8.80
2022-11-05T07:24:31.371Z,8.80
2022-11-05T07:26:59.397Z,8.80
2022-11-05T07:29:27.426Z,8.90
2022-11-05T07:31:55.431Z,8.90
2022-11-05T07:34:24.803Z,9.00
2022-11-05T07:36:52.781Z,8.90
2022-11-05T07:39:21.066Z,8.90
2022-11-05T07:41:49.087Z,8.80
2022-11-05T07:44:17.608Z,8.80
2022-11-05T07:46:45.680Z,8.90
2022-11-05T07:49:13.711Z,8.90
2022-11-05T07:51:43.354Z,9.00
2022-11-05T07:54:11.902Z,9.10
2022-11-05T07:56:39.932Z,9.10
2022-11-05T07:59:08.014Z,9.10
2022-11-05T08:01:36.100Z,9.10
2022-11-05T08:04:04.375Z,9.20
2022-11-05T08:06:33.104Z,9.20
2022-11-05T08:09:02.531Z,9.30
2022-11-05T08:11:30.535Z,9.30
2022-11-05T08:13:58.592Z,9.30
2022-11-05T08:16:26.598Z,9.30
2022-11-05T08:18:54.622Z,9.40
2022-11-05T08:21:22.658Z,9.40
2022-11-05T08:23:50.639Z,9.40
2022-11-05T08:26:20.531Z,9.40
2022-11-05T08:28:48.529Z,9.50
2022-11-05T08:31:18.945Z,9.60
2022-11-05T08:33:47.020Z,9.70
2022-11-05T08:36:15.328Z,9.80
2022-11-05T08:38:43.328Z,9.80
2022-11-05T08:41:11.334Z,9.90
2022-11-05T08:43:40.648Z,9.90
2022-11-05T08:46:08.808Z,9.90
2022-11-05T08:48:36.894Z,9.90
2022-11-05T08:51:05.277Z,9.80
2022-11-05T08:53:33.324Z,9.70
2022-11-05T08:56:01.512Z,9.70
2022-11-05T08:58:29.543Z,9.70
2022-11-05T09:01:04.445Z,9.70
2022-11-05T09:03:33.119Z,9.70
2022-11-05T09:06:01.267Z,9.70
2022-11-05T09:08:29.330Z,9.80
2022-11-05T09:10:57.664Z,9.80
2022-11-05T09:13:26.135Z,9.80
2022-11-05T09:15:54.968Z,9.90
2022-11-05T09:18:24.381Z,10.00
2022-11-05T09:20:52.363Z,10.20
2022-11-05T09:23:20.427Z,10.30
2022-11-05T09:25:48.985Z,10.50
2022-11-05T09:28:20.556Z,10.70
2022-11-05T09:30:50.902Z,10.70
2022-11-05T09:33:22.020Z,10.90
2022-11-05T09:35:51.666Z,11.10
2022-11-05T09:38:20.233Z,11.40
2022-11-05T09:40:58.251Z,11.60
2022-11-05T09:43:33.758Z,11.90
2022-11-05T09:46:12.111Z,12.10
2022-11-05T09:48:42.831Z,12.40
2022-11-05T09:51:23.421Z,12.60
2022-11-05T09:53:53.415Z,12.90
2022-11-05T09:56:27.376Z,13.10
2022-11-05T09:59:01.046Z,13.30
2022-11-05T10:01:35.656Z,13.50
2022-11-05T10:04:10.636Z,13.70
2022-11-05T10:06:48.742Z,13.90
2022-11-05T10:09:26.270Z,14.20
2022-11-05T10:12:01.456Z,14.50
2022-11-05T10:14:34.926Z,14.70
2022-11-05T10:17:12.338Z,14.90
2022-11-05T10:19:47.249Z,15.20
2022-11-05T10:22:19.929Z,15.20
2022-11-05T10:24:50.790Z,15.10
2022-11-05T10:27:24.394Z,15.10
2022-11-05T10:29:53.622Z,15.20
2022-11-05T10:32:30.767Z,15.40
2022-11-05T10:35:02.656Z,15.60
2022-11-05T10:37:37.028Z,15.80
2022-11-05T10:40:18.084Z,15.90
2022-11-05T10:42:59.637Z,15.90
2022-11-05T10:45:45.152Z,16.00
2022-11-05T10:48:57.152Z,16.20
2022-11-05T10:51:25.487Z,16.50
2022-11-05T10:54:02.304Z,16.70
2022-11-05T10:56:35.294Z,17.00
2022-11-05T10:59:09.379Z,17.20
2022-11-05T11:01:40.195Z,17.30
2022-11-05T11:04:23.275Z,17.40
2022-11-05T11:06:54.532Z,17.70
2022-11-05T11:09:28.202Z,18.10
2022-11-05T11:12:14.835Z,18.30
2022-11-05T11:14:43.237Z,18.50
2022-11-05T11:17:28.763Z,18.50
2022-11-05T11:20:22.304Z,18.60
2022-11-05T11:23:12.375Z,18.60
2022-11-05T11:25:51.508Z,18.80
2022-11-05T11:28:24.834Z,19.10
2022-11-05T11:31:04.578Z,19.20
2022-11-05T11:33:34.465Z,19.30
2022-11-05T11:36:03.211Z,19.30
2022-11-05T11:38:33.742Z,19.40
2022-11-05T11:41:18.088Z,19.80
2022-11-05T11:43:47.044Z,20.20
2022-11-05T11:46:19.217Z,21.00
2022-11-05T11:48:49.299Z,20.80
2022-11-05T11:51:31.924Z,20.50
2022-11-05T11:54:01.791Z,20.20
2022-11-05T11:56:42.850Z,20.50
2022-11-05T11:59:40.442Z,20.90
2022-11-05T12:02:42.020Z,21.40
2022-11-05T12:05:31.484Z,22.10
2022-11-05T12:08:20.454Z,22.20
2022-11-05T12:11:01.406Z,22.50
2022-11-05T12:13:59.239Z,22.70
2022-11-05T12:17:08.493Z,22.50
2022-11-05T12:19:56.665Z,22.30
2022-11-05T12:22:41.403Z,22.60
2022-11-05T12:25:23.604Z,22.40
2022-11-05T12:28:14.162Z,22.10
2022-11-05T12:30:56.054Z,21.70
2022-11-05T12:33:52.154Z,21.40
2022-11-05T12:36:38.650Z,21.00
2022-11-05T12:39:42.863Z,20.60
2022-11-05T12:42:31.938Z,20.50
2022-11-05T12:45:06.111Z,21.10
2022-11-05T12:47:57.987Z,21.20
2022-11-05T12:50:34.588Z,22.10
2022-11-05T12:53:35.712Z,23.20
2022-11-05T12:56:11.729Z,24.30
2022-11-05T12:58:46.837Z,24.50
2022-11-05T13:01:20.998Z,25.40
2022-11-05T13:03:56.691Z,26.10
2022-11-05T13:06:33.174Z,26.70
2022-11-05T13:09:09.096Z,27.10
2022-11-05T13:11:44.086Z,27.60
2022-11-05T13:14:18.776Z,28.10
2022-11-05T13:16:51.665Z,29.00
2022-11-05T13:19:26.075Z,29.40
2022-11-05T13:22:03.692Z,29.90
2022-11-05T13:24:40.063Z,28.40
2022-11-05T13:27:31.659Z,28.50
2022-11-05T13:30:07.057Z,28.70
2022-11-05T13:32:40.183Z,28.50
2022-11-05T13:35:23.250Z,28.80
2022-11-05T13:38:17.730Z,28.90
2022-11-05T13:41:03.388Z,29.10
2022-11-05T13:43:58.838Z,29.00
2022-11-05T13:46:49.163Z,29.50
2022-11-05T13:49:53.771Z,29.10
2022-11-05T13:53:04.661Z,28.30
2022-11-05T13:55:57.315Z,28.00
2022-11-05T13:59:31.516Z,27.20
2022-11-05T14:02:03.162Z,27.10
2022-11-05T14:04:36.882Z,26.70
2022-11-05T14:07:11.965Z,26.10
2022-11-05T14:09:43.931Z,25.70
2022-11-05T14:12:23.930Z,25.30
2022-11-05T14:14:59.575Z,24.90
2022-11-05T14:17:33.589Z,24.70
2022-11-05T14:20:42.410Z,24.70
2022-11-05T14:23:40.125Z,25.20
2022-11-05T14:26:23.330Z,25.50
2022-11-05T14:29:22.205Z,24.90
2022-11-05T14:32:10.498Z,24.30
2022-11-05T14:34:48.615Z,23.60
2022-11-05T14:37:42.535Z,23.20
2022-11-05T14:40:42.302Z,22.50
2022-11-05T14:43:22.800Z,22.30
2022-11-05T14:45:57.899Z,22.40
2022-11-05T14:48:38.452Z,22.50
2022-11-05T14:51:27.670Z,21.80
2022-11-05T14:54:04.730Z,20.40
2022-11-05T14:56:45.824Z,19.30
2022-11-05T14:59:53.346Z,18.30
2022-11-05T15:02:27.483Z,17.30
2022-11-05T15:05:39.517Z,16.50
2022-11-05T15:08:36.887Z,16.00
2022-11-05T15:11:19.299Z,15.50
2022-11-05T15:14:04.446Z,15.10
2022-11-05T15:16:41.759Z,14.70
2022-11-05T15:19:21.125Z,14.30
2022-11-05T15:21:51.006Z,14.00
2022-11-05T15:24:20.968Z,13.80
2022-11-05T15:27:07.800Z,13.50
2022-11-05T15:29:35.997Z,13.30
2022-11-05T15:32:06.728Z,13.00
2022-11-05T15:34:35.897Z,12.80
2022-11-05T15:37:22.214Z,12.60
2022-11-05T15:39:52.358Z,12.40
2022-11-05T15:42:23.442Z,12.20
2022-11-05T15:44:53.318Z,12.10
2022-11-05T15:47:25.531Z,11.90
2022-11-05T15:49:56.293Z,11.80
2022-11-05T15:52:31.870Z,11.60
2022-11-05T15:55:19.660Z,11.50
2022-11-05T15:57:51.699Z,11.30
2022-11-05T16:00:23.868Z,11.20
2022-11-05T16:02:57.588Z,11.10
2022-11-05T16:05:29.229Z,11.00
2022-11-05T16:08:00.414Z,10.90
2022-11-05T16:10:32.216Z,10.80
2022-11-05T16:13:29.863Z,10.70
2022-11-05T16:16:01.031Z,10.60
2022-11-05T16:18:35.207Z,10.50
2022-11-05T16:21:09.195Z,10.40
2022-11-05T16:23:47.049Z,10.30
2022-11-05T16:27:01.258Z,10.30
2022-11-05T16:29:29.413Z,10.20
2022-11-05T16:31:59.964Z,10.10
2022-11-05T16:34:36.604Z,10.00
2022-11-05T16:37:06.635Z,10.00
2022-11-05T16:39:34.952Z,9.90
2022-11-05T16:42:03.089Z,9.90
2022-11-05T16:44:31.095Z,9.90
2022-11-05T16:46:59.265Z,9.80
2022-11-05T16:49:28.673Z,9.80
2022-11-05T16:51:56.757Z,9.80
2022-11-05T16:54:24.725Z,9.70
2022-11-05T16:56:52.816Z,9.70
2022-11-05T16:59:20.857Z,9.70
2022-11-05T17:01:53.073Z,9.60
2022-11-05T17:04:23.788Z,9.60
2022-11-05T17:06:53.247Z,9.50
2022-11-05T17:09:21.496Z,9.50
2022-11-05T17:11:49.510Z,9.40
2022-11-05T17:14:17.507Z,9.40
2022-11-05T17:16:45.466Z,9.30
2022-11-05T17:19:16.716Z,9.30
2022-11-05T17:21:44.809Z,9.30
2022-11-05T17:24:14.179Z,9.20
2022-11-05T17:26:42.483Z,9.20
2022-11-05T17:29:10.566Z,9.20
2022-11-05T17:31:41.280Z,9.20
2022-11-05T17:34:11.497Z,9.20
2022-11-05T17:36:39.555Z,9.20
2022-11-05T17:39:07.724Z,9.20
2022-11-05T17:41:37.142Z,9.10
2022-11-05T17:44:05.393Z,9.10
2022-11-05T17:46:33.463Z,9.10
2022-11-05T17:49:01.484Z,9.00
2022-11-05T17:51:29.553Z,9.00
2022-11-05T17:53:57.956Z,8.90
2022-11-05T17:56:33.875Z,8.90
2022-11-05T17:59:04.298Z,8.90
2022-11-05T18:01:35.712Z,8.90
2022-11-05T18:04:08.584Z,8.90
2022-11-05T18:06:37.620Z,8.90
2022-11-05T18:09:07.018Z,8.90
2022-11-05T18:11:36.218Z,8.90
2022-11-05T18:14:06.127Z,8.80
2022-11-05T18:16:34.749Z,8.80
2022-11-05T18:19:03.013Z,8.80
2022-11-05T18:21:31.139Z,8.80
2022-11-05T18:23:59.117Z,8.80
2022-11-05T18:26:27.095Z,8.80
2022-11-05T18:28:55.080Z,8.80
2022-11-05T18:31:24.454Z,8.70
2022-11-05T18:33:56.631Z,8.70
2022-11-05T18:36:27.534Z,8.60
2022-11-05T18:38:57.418Z,8.50
2022-11-05T18:41:25.959Z,8.50
2022-11-05T18:43:54.290Z,8.40
2022-11-05T18:46:51.177Z,8.30
2022-11-05T18:49:12.893Z,8.20
2022-11-05T18:51:41.333Z,8.10
2022-11-05T18:54:09.720Z,8.00
2022-11-05T18:56:39.377Z,7.90
2022-11-05T18:59:35.290Z,7.90
2022-11-05T19:01:56.926Z,7.80
2022-11-05T19:04:26.488Z,7.80
2022-11-05T19:06:54.541Z,7.80
2022-11-05T19:09:22.668Z,7.70
2022-11-05T19:11:52.110Z,7.70
2022-11-05T19:14:20.058Z,7.70
2022-11-05T19:16:48.165Z,7.60
2022-11-05T19:19:17.676Z,7.60
2022-11-05T19:21:46.185Z,7.50
2022-11-05T19:24:17.503Z,7.50
2022-11-05T19:26:46.642Z,7.50
2022-11-05T19:29:14.829Z,7.40
2022-11-05T19:31:43.050Z,7.40
2022-11-05T19:34:13.245Z,7.30
2022-11-05T19:36:43.253Z,7.30
2022-11-05T19:39:15.620Z,7.30
2022-11-05T19:41:43.729Z,7.30
2022-11-05T19:44:12.267Z,7.20
2022-11-05T19:46:40.411Z,7.20
2022-11-05T19:49:08.672Z,7.20
2022-11-05T19:51:37.776Z,7.10
2022-11-05T19:54:08.214Z,7.10
2022-11-05T19:56:38.407Z,7.00
2022-11-05T19:59:07.531Z,7.00
2022-11-05T20:01:36.382Z,6.90
2022-11-05T20:04:05.704Z,6.80
2022-11-05T20:06:39.987Z,6.80
2022-11-05T20:09:21.697Z,6.80
2022-11-05T20:11:53.702Z,6.80
2022-11-05T20:14:21.960Z,6.70
2022-11-05T20:16:51.020Z,6.70
2022-11-05T20:19:22.082Z,6.70
2022-11-05T20:21:50.473Z,6.70
2022-11-05T20:24:25.065Z,6.70
2022-11-05T20:26:54.893Z,6.60
2022-11-05T20:29:29.034Z,6.60
2022-11-05T20:31:58.814Z,6.60
2022-11-05T20:34:26.859Z,6.60
2022-11-05T20:36:54.963Z,6.50
2022-11-05T20:39:24.393Z,6.50
2022-11-05T20:41:52.808Z,6.50
2022-11-05T20:44:21.132Z,6.50
2022-11-05T20:46:49.492Z,6.50
2022-11-05T20:49:22.518Z,6.40
2022-11-05T20:51:53.122Z,6.40
2022-11-05T20:54:21.498Z,6.40
2022-11-05T20:56:50.923Z,6.40
2022-11-05T20:59:19.408Z,6.30
2022-11-05T21:01:48.198Z,6.30
2022-11-05T21:04:16.322Z,6.30
2022-11-05T21:06:44.364Z,6.30
2022-11-05T21:09:12.626Z,6.30
2022-11-05T21:11:58.106Z,6.30
2022-11-05T21:14:27.492Z,6.30
2022-11-05T21:16:55.513Z,6.20
2022-11-05T21:19:24.342Z,6.20
2022-11-05T21:21:52.320Z,6.20
2022-11-05T21:24:20.282Z,6.20
2022-11-05T21:26:49.866Z,6.20
2022-11-05T21:29:18.190Z,6.10
2022-11-05T21:31:47.691Z,6.20
2022-11-05T21:34:16.061Z,6.10
2022-11-05T21:36:44.412Z,6.10
2022-11-05T21:39:13.815Z,6.10
2022-11-05T21:41:42.616Z,6.10
2022-11-05T21:44:10.779Z,6.10
2022-11-05T21:46:38.821Z,6.10
2022-11-05T21:49:08.359Z,6.10
2022-11-05T21:51:53.850Z,6.10
2022-11-05T21:54:39.405Z,6.00
2022-11-05T21:57:32.395Z,6.00
2022-11-05T22:00:01.549Z,6.00
